Time;durP1;ratioP1;P1;durP2;ratioP2;P2;SDS_P1;SDS_P2;PMS_P1;PMS_P2;Temp;Humidity;BMP_temperature;BMP_pressure;BME280_temperature;BME280_humidity;BME280_pressure;Samples;Min_cycle;Max_cycle;Signal;HPM_P1;HPM_P2
2021/12/21 00:00:39;;;;;;;;;;;;;;;13.99;61.24;102529.00;1042562;28;681;-57
2021/12/21 00:01:31;;;;;;;;;;;;;;;13.98;62.47;102529.94;1046163;28;1528;-57
2021/12/21 00:02:22;;;;;;;;;;;;;;;13.98;62.31;102534.44;1044646;28;1547;-57
2021/12/21 00:03:12;;;;;;;;;;;;;;;13.97;61.78;102533.59;1045342;28;1655;-58
2021/12/21 00:04:03;;;;;;;;;;;;;;;13.98;61.95;102535.28;1045469;28;1637;-57
2021/12/21 00:04:53;;;;;;;;;;;;;;;13.98;62.17;102529.94;1045993;28;1344;-58
2021/12/21 00:05:43;;;;;;;;;;;;;;;13.96;62.03;102525.63;1043737;28;1378;-58
2021/12/21 00:06:34;;;;;;;;;;;;;;;13.96;62.00;102528.31;1046048;28;1567;-58
2021/12/21 00:07:25;;;;;;;;;;;;;;;13.96;61.60;102520.25;1046058;28;1452;-58
2021/12/21 00:08:16;;;;;;;;;;;;;;;13.94;61.72;102523.03;1045846;28;1519;-54
2021/12/21 00:09:07;;;;;;;;;;;;;;;13.93;61.77;102526.66;1046014;28;1599;-54
2021/12/21 00:09:57;;;;;;;;;;;;;;;13.95;61.49;102521.22;1043085;28;1377;-55
2021/12/21 00:10:48;;;;;;;;;;;;;;;13.96;61.58;102521.13;1040126;28;1486;-55
2021/12/21 00:11:38;;;;;;;;;;;;;;;13.96;62.00;102512.22;1040538;28;1645;-56
2021/12/21 00:12:30;;;;;;;;;;;;;;;13.95;61.34;102516.72;1044479;28;1391;-56
2021/12/21 00:13:34;;;;;;;;;;;;;;;13.93;61.89;102510.56;1044196;28;1466;-54
2021/12/21 00:15:28;;;;;;;;;;;;;;;13.92;62.45;102511.50;1045702;28;1514;-53
2021/12/21 00:16:48;;;;;;;;;;;;;;;13.93;62.01;102515.94;1045952;28;1440;-54
2021/12/21 00:17:49;;;;;;;;;;;;;;;13.92;62.17;102508.84;1043409;28;719;-54
2021/12/21 00:19:26;;;;;;;;;;;;;;;13.92;61.86;102506.16;1044664;28;1437;-55
2021/12/21 00:21:57;;;;;;;;;;;;;;;13.91;61.95;102501.75;1045587;28;1347;-54
2021/12/21 00:23:17;;;;;;;;;;;;;;;13.92;61.74;102503.47;1044733;28;1430;-52
2021/12/21 00:24:02;;;;;;;;;;;;;;;13.89;62.28;102499.13;1045274;28;1470;-57
2021/12/21 00:24:52;;;;;;;;;;;;;;;13.89;62.04;102509.00;1046119;28;1591;-57
2021/12/21 00:25:44;;;;;;;;;;;;;;;13.89;61.90;102506.31;1041107;28;1205;-55
2021/12/21 00:26:34;;;;;;;;;;;;;;;13.88;62.58;102512.63;1045568;28;1209;-55
2021/12/21 00:27:24;;;;;;;;;;;;;;;13.88;61.81;102508.13;1044938;28;1354;-54
2021/12/21 00:28:15;;;;;;;;;;;;;;;13.89;62.28;102506.31;1042501;28;1576;-57
2021/12/21 00:29:06;;;;;;;;;;;;;;;13.90;62.43;102505.38;1041081;28;1478;-56
2021/12/21 00:29:56;;;;;;;;;;;;;;;13.88;62.64;102505.44;1043754;28;1499;-53
2021/12/21 00:30:47;;;;;;;;;;;;;;;13.88;62.72;102500.09;1041057;28;1672;-52
2021/12/21 00:31:37;;;;;;;;;;;;;;;13.88;62.60;102507.25;1041779;28;1511;-54
2021/12/21 00:32:28;;;;;;;;;;;;;;;13.87;62.79;102498.34;1046251;28;1177;-55
2021/12/21 00:33:18;;;;;;;;;;;;;;;13.88;62.25;102501.91;1043426;28;1110;-54
2021/12/21 00:34:09;;;;;;;;;;;;;;;13.88;62.12;102504.56;1045048;28;1724;-53
2021/12/21 00:34:59;;;;;;;;;;;;;;;13.88;61.79;102508.13;1044902;28;669;-55
2021/12/21 00:35:50;;;;;;;;;;;;;;;13.88;62.21;102501.91;1044626;28;1531;-55
2021/12/21 00:36:40;;;;;;;;;;;;;;;13.87;62.11;102500.16;1044201;28;1201;-54
2021/12/21 00:37:31;;;;;;;;;;;;;;;13.87;62.82;102500.16;1044204;28;1112;-55
2021/12/21 00:38:21;;;;;;;;;;;;;;;13.86;62.50;102498.44;1042999;28;1091;-56
2021/12/21 00:39:15;;;;;;;;;;;;;;;13.85;63.05;102491.31;1044257;28;1141;-55
2021/12/21 00:40:05;;;;;;;;;;;;;;;13.85;62.70;102499.38;1043560;28;1272;-58
2021/12/21 00:40:55;;;;;;;;;;;;;;;13.85;62.88;102491.31;1041134;28;645;-59
2021/12/21 00:41:46;;;;;;;;;;;;;;;13.85;62.47;102491.31;1041895;28;700;-58
2021/12/21 00:42:36;;;;;;;;;;;;;;;13.84;62.45;102490.47;1046506;28;617;-58
2021/12/21 00:43:27;;;;;;;;;;;;;;;13.83;62.82;102488.72;1045081;28;895;-58
2021/12/21 00:44:17;;;;;;;;;;;;;;;13.84;62.07;102489.59;1041630;28;748;-54
2021/12/21 00:45:08;;;;;;;;;;;;;;;13.83;62.94;102490.53;1042592;28;634;-53
2021/12/21 00:45:58;;;;;;;;;;;;;;;13.84;62.25;102489.59;1042646;28;633;-51
2021/12/21 00:46:48;;;;;;;;;;;;;;;13.84;62.03;102487.78;1042796;28;609;-58
2021/12/21 00:47:46;;;;;;;;;;;;;;;13.83;62.18;102482.50;1042395;28;740;-59
2021/12/21 00:48:37;;;;;;;;;;;;;;;13.80;62.95;102483.53;1042435;28;1280;-55
2021/12/21 00:49:29;;;;;;;;;;;;;;;13.81;62.87;102479.03;1043840;28;1177;-56
2021/12/21 00:50:20;;;;;;;;;;;;;;;13.80;61.99;102483.53;1042395;28;1141;-57
2021/12/21 00:51:10;;;;;;;;;;;;;;;13.81;62.72;102481.72;1045430;28;1241;-57
2021/12/21 00:52:00;;;;;;;;;;;;;;;13.82;62.68;102492.34;1043086;28;1186;-58
2021/12/21 00:52:51;;;;;;;;;;;;;;;13.82;61.99;102484.31;1044906;28;1117;-58
2021/12/21 00:53:41;;;;;;;;;;;;;;;13.81;62.28;102490.63;1043056;28;1177;-55
2021/12/21 00:54:32;;;;;;;;;;;;;;;13.79;62.96;102492.50;1044682;28;1257;-56
2021/12/21 00:55:22;;;;;;;;;;;;;;;13.79;62.01;102489.00;1043861;28;1087;-55
2021/12/21 00:56:13;;;;;;;;;;;;;;;13.78;62.17;102485.44;1044984;28;650;-53
2021/12/21 00:57:04;;;;;;;;;;;;;;;13.80;62.67;102493.38;1045123;28;1961;-53
2021/12/21 00:57:55;;;;;;;;;;;;;;;13.80;62.07;102494.25;1044845;28;696;-54
2021/12/21 00:58:45;;;;;;;;;;;;;;;13.79;62.15;102492.50;1045027;28;629;-52
2021/12/21 00:59:35;;;;;;;;;;;;;;;13.79;62.75;102494.34;1041014;28;633;-54
2021/12/21 01:00:26;;;;;;;;;;;;;;;13.78;61.98;102498.84;1041668;28;727;-50
2021/12/21 01:01:16;;;;;;;;;;;;;;;13.79;61.97;102499.72;1045989;28;649;-50
2021/12/21 01:02:07;;;;;;;;;;;;;;;13.80;62.52;102496.91;1044699;28;1686;-51
2021/12/21 01:03:04;;;;;;;;;;;;;;;13.79;61.89;102495.19;1044867;28;1622;-49
2021/12/21 01:03:56;;;;;;;;;;;;;;;13.78;62.53;102496.16;1046092;28;697;-51
2021/12/21 01:04:49;;;;;;;;;;;;;;;13.79;62.42;102497.88;1046248;28;819;-53
2021/12/21 01:07:31;;;;;;;;;;;;;;;13.78;62.62;102492.63;1042664;28;1505;-55
2021/12/21 01:08:26;;;;;;;;;;;;;;;13.77;62.32;102496.25;1044776;28;1471;-54
2021/12/21 01:10:49;;;;;;;;;;;;;;;13.76;62.17;102492.69;1039083;28;1579;-54
2021/12/21 01:11:49;;;;;;;;;;;;;;;13.75;62.57;102490.09;1046494;28;1469;-56
2021/12/21 01:12:51;;;;;;;;;;;;;;;13.75;61.93;102495.44;1041930;28;1356;-56
2021/12/21 01:14:37;;;;;;;;;;;;;;;13.74;62.17;102499.06;1043835;28;1480;-57
2021/12/21 01:17:12;;;;;;;;;;;;;;;13.74;61.97;102501.75;1045072;28;1902;-55
2021/12/21 01:18:15;;;;;;;;;;;;;;;13.74;62.64;102499.06;1044659;28;1363;-58
2021/12/21 01:19:23;;;;;;;;;;;;;;;13.73;62.81;102494.66;1044414;28;1559;-57
2021/12/21 01:20:27;;;;;;;;;;;;;;;13.71;62.35;102480.47;1044452;28;1490;-57
2021/12/21 01:21:21;;;;;;;;;;;;;;;13.72;62.77;102487.56;1046281;28;1437;-55
2021/12/21 01:25:39;;;;;;;;;;;;;;;13.71;62.21;102485.84;1036340;28;1583;-57
2021/12/21 01:28:49;;;;;;;;;;;;;;;13.71;62.02;102488.50;1043279;28;1977;-56
2021/12/21 01:30:36;;;;;;;;;;;;;;;13.70;62.50;102487.66;1046583;28;1608;-56
2021/12/21 01:31:55;;;;;;;;;;;;;;;13.68;61.96;102483.31;1042346;28;1553;-56
2021/12/21 01:34:00;;;;;;;;;;;;;;;13.69;62.55;102479.69;1046427;28;1509;-55
2021/12/21 01:35:12;;;;;;;;;;;;;;;13.67;61.90;102478.88;1043951;28;1269;-57
2021/12/21 01:36:08;;;;;;;;;;;;;;;13.65;63.13;102481.66;1042889;28;1142;-57
2021/12/21 01:37:06;;;;;;;;;;;;;;;13.66;62.27;102483.38;1045029;28;1940;-56
2021/12/21 01:38:06;;;;;;;;;;;;;;;13.67;62.18;102479.75;1044749;28;1635;-57
2021/12/21 01:39:09;;;;;;;;;;;;;;;13.66;62.75;102471.81;1042048;28;1490;-54
2021/12/21 01:40:28;;;;;;;;;;;;;;;13.65;62.63;102475.41;1045925;28;1263;-57
2021/12/21 01:41:28;;;;;;;;;;;;;;;13.64;62.13;102479.03;1044227;28;1360;-53
2021/12/21 01:42:38;;;;;;;;;;;;;;;13.65;62.06;102468.25;1042272;28;1648;-55
2021/12/21 01:43:41;;;;;;;;;;;;;;;13.65;62.79;102468.25;1043617;28;1409;-56
2021/12/21 01:49:35;;;;;;;;;;;;;;;13.65;62.62;102470.06;1043981;28;1440;-54
2021/12/21 01:50:28;;;;;;;;;;;;;;;13.65;62.33;102464.72;1044767;28;1403;-56
2021/12/21 01:51:18;;;;;;;;;;;;;;;13.64;61.96;102462.97;1041312;28;1486;-53
2021/12/21 01:52:08;;;;;;;;;;;;;;;13.64;62.04;102468.31;1041702;28;860;-58
2021/12/21 01:52:59;;;;;;;;;;;;;;;13.63;62.43;102462.09;1041273;28;786;-58
2021/12/21 01:53:49;;;;;;;;;;;;;;;13.63;62.66;102467.47;1042153;28;646;-57
2021/12/21 01:54:40;;;;;;;;;;;;;;;13.62;62.46;102463.03;1042002;28;630;-58
2021/12/21 01:55:30;;;;;;;;;;;;;;;13.62;62.31;102470.22;1041906;28;621;-54
2021/12/21 01:56:20;;;;;;;;;;;;;;;13.60;62.82;102464.09;1042323;28;793;-54
2021/12/21 01:57:11;;;;;;;;;;;;;;;13.61;62.24;102468.50;1042389;28;1906;-53
2021/12/21 01:58:01;;;;;;;;;;;;;;;13.63;61.97;102463.91;1042519;28;737;-52
2021/12/21 01:58:52;;;;;;;;;;;;;;;13.61;62.92;102460.47;1042416;28;918;-58
2021/12/21 01:59:42;;;;;;;;;;;;;;;13.60;62.08;102459.63;1042245;28;693;-55
2021/12/21 02:00:33;;;;;;;;;;;;;;;13.61;62.28;102465.84;1041770;28;901;-56
2021/12/21 02:01:23;;;;;;;;;;;;;;;13.59;61.92;102462.38;1042344;28;731;-58
2021/12/21 02:02:13;;;;;;;;;;;;;;;13.60;62.53;102464.09;1041824;28;800;-58
2021/12/21 02:03:05;;;;;;;;;;;;;;;13.59;61.68;102457.88;1045268;28;1498;-57
2021/12/21 02:03:55;;;;;;;;;;;;;;;13.59;62.65;102459.69;1042976;28;1453;-57
2021/12/21 02:04:46;;;;;;;;;;;;;;;13.60;62.31;102458.75;1044311;28;1316;-54
2021/12/21 02:05:36;;;;;;;;;;;;;;;13.60;62.03;102464.09;1043134;28;1559;-56
2021/12/21 02:06:27;;;;;;;;;;;;;;;13.58;62.04;102455.28;1044552;28;1449;-57
2021/12/21 02:07:17;;;;;;;;;;;;;;;13.58;62.54;102466.00;1043301;28;1474;-55
2021/12/21 02:08:08;;;;;;;;;;;;;;;13.58;61.59;102466.00;1044530;28;1484;-55
2021/12/21 02:08:58;;;;;;;;;;;;;;;13.55;62.05;102457.16;1043308;28;1473;-55
2021/12/21 02:09:48;;;;;;;;;;;;;;;13.57;62.61;102461.56;1041912;28;1303;-57
2021/12/21 02:10:39;;;;;;;;;;;;;;;13.56;62.44;102460.72;1044542;28;1379;-56
2021/12/21 02:11:29;;;;;;;;;;;;;;;13.54;62.54;102455.44;1041987;28;1485;-57
2021/12/21 02:12:20;;;;;;;;;;;;;;;13.54;61.71;102460.78;1042520;28;1654;-57
2021/12/21 02:13:10;;;;;;;;;;;;;;;13.54;62.07;102459.91;1045708;28;1518;-56
2021/12/21 02:14:01;;;;;;;;;;;;;;;13.53;62.44;102458.19;1043592;28;1550;-57
2021/12/21 02:14:59;;;;;;;;;;;;;;;13.55;62.28;102458.97;1040877;28;1666;-56
2021/12/21 02:15:50;;;;;;;;;;;;;;;13.53;61.17;102453.69;1042679;28;1473;-55
2021/12/21 02:19:39;;;;;;;;;;;;;;;13.50;62.12;102458.34;1043093;28;1530;-55
2021/12/21 02:22:17;;;;;;;;;;;;;;;13.51;61.85;102452.91;1044409;28;1361;-55
2021/12/21 02:23:14;;;;;;;;;;;;;;;13.50;61.94;102447.63;1044656;28;1466;-54
2021/12/21 02:24:10;;;;;;;;;;;;;;;13.49;62.02;102456.59;1045126;28;1571;-56
2021/12/21 02:25:33;;;;;;;;;;;;;;;13.49;61.30;102454.78;1043420;28;1360;-57
2021/12/21 02:26:36;;;;;;;;;;;;;;;13.48;61.25;102450.38;1042686;28;1409;-56
2021/12/21 02:27:30;;;;;;;;;;;;;;;13.46;62.19;102454.94;1044158;28;1497;-56
2021/12/21 02:28:45;;;;;;;;;;;;;;;13.47;61.32;102454.00;1041686;28;916;-53
2021/12/21 02:29:35;;;;;;;;;;;;;;;13.45;61.31;102444.31;1044189;28;1472;-53
2021/12/21 02:30:26;;;;;;;;;;;;;;;13.45;61.31;102450.53;1044729;28;1598;-54
2021/12/21 02:31:17;;;;;;;;;;;;;;;13.45;61.06;102445.16;1039150;28;1529;-55
2021/12/21 02:32:08;;;;;;;;;;;;;;;13.45;61.85;102447.84;1040881;28;1683;-57
2021/12/21 02:32:58;;;;;;;;;;;;;;;13.46;61.69;102446.03;1045000;28;1385;-51
2021/12/21 02:33:49;;;;;;;;;;;;;;;13.45;60.98;102447.84;1044314;28;1388;-55
2021/12/21 02:34:44;;;;;;;;;;;;;;;13.42;61.16;102445.34;1039465;28;1285;-52
2021/12/21 02:35:34;;;;;;;;;;;;;;;13.43;61.41;102441.75;1039377;28;1134;-55
2021/12/21 02:36:25;;;;;;;;;;;;;;;13.45;61.40;102442.50;1044544;28;1087;-55
2021/12/21 02:37:15;;;;;;;;;;;;;;;13.44;61.05;102438.09;1042583;28;1894;-53
2021/12/21 02:38:06;;;;;;;;;;;;;;;13.43;61.95;102436.38;1043881;28;1149;-53
2021/12/21 02:38:56;;;;;;;;;;;;;;;13.42;61.30;102431.97;1042924;28;1288;-55
2021/12/21 02:39:46;;;;;;;;;;;;;;;13.41;61.38;102435.59;1043658;28;1218;-54
2021/12/21 02:40:37;;;;;;;;;;;;;;;13.41;61.68;102435.59;1040857;28;1370;-55
2021/12/21 02:41:27;;;;;;;;;;;;;;;13.40;60.80;102444.56;1037806;28;682;-52
2021/12/21 02:42:18;;;;;;;;;;;;;;;13.41;60.78;102440.94;1044109;28;1624;-56
2021/12/21 02:43:10;;;;;;;;;;;;;;;13.41;61.50;102437.41;1044754;28;641;-57
2021/12/21 02:44:00;;;;;;;;;;;;;;;13.40;61.73;102446.38;1045499;28;613;-58
2021/12/21 02:44:51;;;;;;;;;;;;;;;13.39;61.46;102434.81;1044515;28;622;-56
2021/12/21 02:45:41;;;;;;;;;;;;;;;13.40;61.85;102438.34;1044541;28;637;-57
2021/12/21 02:46:32;;;;;;;;;;;;;;;13.40;61.09;102436.53;1044422;28;621;-58
2021/12/21 02:47:22;;;;;;;;;;;;;;;13.38;60.77;102437.56;1044678;28;646;-57
2021/12/21 02:48:13;;;;;;;;;;;;;;;13.37;61.76;102436.69;1044327;28;823;-56
2021/12/21 02:49:03;;;;;;;;;;;;;;;13.38;60.96;102432.19;1044587;28;673;-54
2021/12/21 02:49:53;;;;;;;;;;;;;;;13.37;60.57;102439.38;1041058;28;1370;-56
2021/12/21 02:50:44;;;;;;;;;;;;;;;13.38;60.74;102438.41;1042105;28;661;-56
2021/12/21 02:51:34;;;;;;;;;;;;;;;13.37;60.80;102430.47;1042138;28;659;-56
2021/12/21 02:52:25;;;;;;;;;;;;;;;13.35;60.95;102435.91;1042114;28;668;-54
2021/12/21 02:53:15;;;;;;;;;;;;;;;13.32;60.95;102430.69;1041763;28;727;-56
2021/12/21 02:54:06;;;;;;;;;;;;;;;13.35;60.97;102438.56;1042556;28;637;-54
2021/12/21 02:54:56;;;;;;;;;;;;;;;13.34;60.76;102436.84;1045676;28;1982;-53
2021/12/21 02:55:46;;;;;;;;;;;;;;;13.34;61.30;102433.28;1045705;28;676;-55
2021/12/21 02:56:37;;;;;;;;;;;;;;;13.33;60.90;102437.78;1045683;28;638;-51
2021/12/21 02:57:27;;;;;;;;;;;;;;;13.34;61.00;102436.84;1041182;28;743;-53
2021/12/21 02:58:18;;;;;;;;;;;;;;;13.35;61.05;102437.69;1041855;28;661;-54
2021/12/21 02:59:08;;;;;;;;;;;;;;;13.35;60.87;102437.69;1045651;28;805;-53
2021/12/21 03:00:01;;;;;;;;;;;;;;;13.34;61.36;102441.31;1045795;28;629;-54
2021/12/21 03:00:53;;;;;;;;;;;;;;;13.32;60.79;102432.50;1045606;28;677;-52
2021/12/21 03:01:43;;;;;;;;;;;;;;;13.35;61.22;102441.25;1045813;28;625;-53
2021/12/21 03:02:34;;;;;;;;;;;;;;;13.33;61.34;102440.47;1037865;28;613;-54
2021/12/21 03:03:26;;;;;;;;;;;;;;;13.34;61.15;102438.66;1038384;28;1072;-54
2021/12/21 03:04:17;;;;;;;;;;;;;;;13.34;60.69;102442.19;1037832;28;644;-55
2021/12/21 03:05:07;;;;;;;;;;;;;;;13.33;60.88;102437.78;1037617;28;900;-54
2021/12/21 03:05:59;;;;;;;;;;;;;;;13.33;61.00;102440.47;1042668;28;799;-53
2021/12/21 03:08:45;;;;;;;;;;;;;;;13.33;60.62;102436.91;1042069;28;748;-56
2021/12/21 03:09:43;;;;;;;;;;;;;;;13.31;61.34;102441.47;1043075;28;897;-54
2021/12/21 03:10:34;;;;;;;;;;;;;;;13.31;60.21;102439.66;1043044;28;628;-56
2021/12/21 03:14:08;;;;;;;;;;;;;;;13.30;60.17;102437.06;1045980;28;1971;-51
2021/12/21 03:14:58;;;;;;;;;;;;;;;13.31;60.54;102439.66;1042705;28;855;-54
2021/12/21 03:15:49;;;;;;;;;;;;;;;13.31;60.92;102430.75;1043431;28;802;-52
2021/12/21 03:16:39;;;;;;;;;;;;;;;13.31;60.14;102430.75;1047388;28;759;-52
2021/12/21 03:17:29;;;;;;;;;;;;;;;13.30;60.56;102439.75;1045265;28;812;-50
2021/12/21 03:18:20;;;;;;;;;;;;;;;13.27;60.81;102432.72;1045361;28;811;-52
2021/12/21 03:19:10;;;;;;;;;;;;;;;13.29;61.16;102432.66;1045591;28;761;-48
2021/12/21 03:20:01;;;;;;;;;;;;;;;13.29;60.41;102432.66;1045285;28;726;-56
2021/12/21 03:20:51;;;;;;;;;;;;;;;13.28;60.16;102431.78;1045508;28;677;-51
2021/12/21 03:21:41;;;;;;;;;;;;;;;13.27;61.03;102429.19;1044919;28;1824;-50
2021/12/21 03:22:32;;;;;;;;;;;;;;;13.26;60.24;102431.00;1046525;28;664;-51
2021/12/21 03:23:22;;;;;;;;;;;;;;;13.28;61.47;102437.13;1046562;28;691;-53
2021/12/21 03:24:13;;;;;;;;;;;;;;;13.27;60.34;102431.84;1042173;28;1071;-55
2021/12/21 03:25:03;;;;;;;;;;;;;;;13.26;60.74;102435.47;1042682;28;838;-53
2021/12/21 03:25:53;;;;;;;;;;;;;;;13.25;60.57;102429.28;1046495;28;803;-55
2021/12/21 03:26:44;;;;;;;;;;;;;;;13.26;61.13;102432.81;1046485;28;649;-50
2021/12/21 03:27:34;;;;;;;;;;;;;;;13.26;61.09;102435.47;1046515;28;684;-52
2021/12/21 03:28:25;;;;;;;;;;;;;;;13.26;61.09;102427.44;1046599;28;929;-54
2021/12/21 03:29:15;;;;;;;;;;;;;;;13.25;61.30;102423.94;1045457;28;760;-51
2021/12/21 03:30:05;;;;;;;;;;;;;;;13.25;60.46;102423.06;1046498;28;908;-51
2021/12/21 03:30:56;;;;;;;;;;;;;;;13.24;60.95;102435.59;1042107;28;825;-52
2021/12/21 03:31:46;;;;;;;;;;;;;;;13.25;60.37;102437.31;1042454;28;1719;-50
2021/12/21 03:32:37;;;;;;;;;;;;;;;13.24;60.20;102432.91;1047180;28;672;-52
2021/12/21 03:33:27;;;;;;;;;;;;;;;13.22;60.49;102431.25;1047164;28;792;-55
2021/12/21 03:34:17;;;;;;;;;;;;;;;13.23;60.50;102431.19;1047118;28;752;-56
2021/12/21 03:35:08;;;;;;;;;;;;;;;13.23;60.64;102430.31;1047027;28;918;-55
2021/12/21 03:36:00;;;;;;;;;;;;;;;13.23;61.21;102433.84;1046773;28;757;-52
2021/12/21 03:36:51;;;;;;;;;;;;;;;13.24;60.21;102437.41;1046701;28;621;-55
2021/12/21 03:37:41;;;;;;;;;;;;;;;13.23;61.03;102432.97;1046206;28;1884;-54
2021/12/21 03:38:33;;;;;;;;;;;;;;;13.23;60.86;102427.63;1045981;28;1906;-51
2021/12/21 03:39:23;;;;;;;;;;;;;;;13.24;60.36;102432.03;1046667;28;761;-52
2021/12/21 03:40:13;;;;;;;;;;;;;;;13.22;60.19;102425.91;1046512;28;768;-53
2021/12/21 03:41:09;;;;;;;;;;;;;;;13.22;60.55;102426.75;1046541;28;797;-51
2021/12/21 03:42:00;;;;;;;;;;;;;;;13.22;59.91;102434.78;1046448;28;779;-54
2021/12/21 03:42:51;;;;;;;;;;;;;;;13.20;60.30;102428.66;1046486;28;1028;-53
2021/12/21 03:43:41;;;;;;;;;;;;;;;13.19;60.42;102433.13;1046548;28;765;-53
2021/12/21 03:44:32;;;;;;;;;;;;;;;13.20;60.69;102431.31;1046428;28;847;-52
2021/12/21 03:45:22;;;;;;;;;;;;;;;13.19;61.14;102425.09;1046546;28;778;-54
2021/12/21 03:46:14;;;;;;;;;;;;;;;13.20;60.79;102436.69;1046542;28;752;-53
2021/12/21 03:47:05;;;;;;;;;;;;;;;13.17;60.34;102427.00;1046482;28;898;-51
2021/12/21 03:47:55;;;;;;;;;;;;;;;13.17;61.18;102432.34;1046310;28;1892;-53
2021/12/21 03:48:46;;;;;;;;;;;;;;;13.19;60.35;102426.91;1042021;28;799;-53
2021/12/21 03:50:30;;;;;;;;;;;;;;;13.17;60.63;102426.13;1044758;28;1008;-51
2021/12/21 03:51:20;;;;;;;;;;;;;;;13.17;61.07;102439.50;1045761;28;693;-55
2021/12/21 03:52:11;;;;;;;;;;;;;;;13.15;60.46;102436.03;1045909;28;695;-50
2021/12/21 03:53:01;;;;;;;;;;;;;;;13.16;60.90;102432.41;1045853;28;738;-58
2021/12/21 03:53:52;;;;;;;;;;;;;;;13.15;60.30;102428.88;1045903;28;613;-57
2021/12/21 03:54:42;;;;;;;;;;;;;;;13.16;60.73;102432.41;1045910;28;733;-57
2021/12/21 03:55:33;;;;;;;;;;;;;;;13.16;60.85;102435.09;1045841;28;638;-57
2021/12/21 03:57:17;;;;;;;;;;;;;;;13.15;60.31;102431.53;1050099;28;1910;-55
2021/12/21 03:58:08;;;;;;;;;;;;;;;13.16;60.67;102425.25;1046256;28;1958;-55
2021/12/21 03:58:58;;;;;;;;;;;;;;;13.16;60.49;102429.75;1046488;28;636;-54
2021/12/21 03:59:49;;;;;;;;;;;;;;;13.15;60.51;102425.31;1046493;28;632;-56
2021/12/21 04:00:39;;;;;;;;;;;;;;;13.15;60.79;102425.31;1046393;28;793;-56
2021/12/21 04:01:30;;;;;;;;;;;;;;;13.14;59.93;102431.59;1046412;28;819;-57
2021/12/21 04:02:21;;;;;;;;;;;;;;;13.15;60.05;102438.72;1046535;28;796;-54
2021/12/21 04:03:11;;;;;;;;;;;;;;;13.13;60.48;102432.53;1042045;28;680;-57
2021/12/21 04:04:01;;;;;;;;;;;;;;;13.14;59.93;102428.91;1042566;28;718;-56
2021/12/21 04:04:53;;;;;;;;;;;;;;;13.12;60.26;102423.63;1046433;28;601;-57
2021/12/21 04:05:44;;;;;;;;;;;;;;;13.12;60.42;102430.78;1045762;28;947;-57
2021/12/21 04:06:34;;;;;;;;;;;;;;;13.11;60.53;102429.94;1046417;28;676;-57
2021/12/21 04:07:24;;;;;;;;;;;;;;;13.11;59.75;102431.75;1041909;28;785;-57
2021/12/21 04:08:15;;;;;;;;;;;;;;;13.12;60.79;102430.78;1037852;28;716;-57
2021/12/21 04:09:05;;;;;;;;;;;;;;;13.10;61.07;102427.31;1042778;28;799;-55
2021/12/21 04:09:56;;;;;;;;;;;;;;;13.11;60.10;102427.25;1042798;28;878;-57
2021/12/21 04:10:46;;;;;;;;;;;;;;;13.09;60.82;102422.91;1042923;28;688;-57
2021/12/21 04:11:36;;;;;;;;;;;;;;;13.09;60.40;102425.59;1042246;28;923;-56
2021/12/21 04:12:27;;;;;;;;;;;;;;;13.09;60.34;102414.88;1042694;28;853;-57
2021/12/21 04:13:17;;;;;;;;;;;;;;;13.06;60.55;102415.94;1042793;28;660;-56
2021/12/21 04:14:08;;;;;;;;;;;;;;;13.09;60.14;102417.56;1042681;28;845;-57
2021/12/21 04:15:00;;;;;;;;;;;;;;;13.09;60.23;102414.88;1042781;28;692;-57
2021/12/21 04:15:53;;;;;;;;;;;;;;;13.08;60.82;102416.69;1041653;28;1039;-57
2021/12/21 04:16:43;;;;;;;;;;;;;;;13.08;60.63;102422.03;1041834;28;700;-56
2021/12/21 04:17:34;;;;;;;;;;;;;;;13.08;59.92;102416.69;1042919;28;690;-55
2021/12/21 04:18:24;;;;;;;;;;;;;;;13.08;60.45;102413.16;1042952;28;778;-55
2021/12/21 04:19:14;;;;;;;;;;;;;;;13.09;60.54;102414.88;1042216;28;638;-54
2021/12/21 04:20:05;;;;;;;;;;;;;;;13.08;59.92;102407.78;1042641;28;2125;-55
2021/12/21 04:20:55;;;;;;;;;;;;;;;13.08;60.74;102414.03;1041696;28;617;-54
2021/12/21 04:21:46;;;;;;;;;;;;;;;13.08;60.84;102415.81;1041505;28;645;-56
2021/12/21 04:22:36;;;;;;;;;;;;;;;13.07;60.50;102422.16;1043351;28;835;-56
2021/12/21 04:23:26;;;;;;;;;;;;;;;13.06;60.11;102417.75;1041563;28;756;-54
2021/12/21 04:24:17;;;;;;;;;;;;;;;13.07;60.73;102422.16;1041566;28;760;-56
2021/12/21 04:25:07;;;;;;;;;;;;;;;13.05;60.62;102419.56;1041611;28;1380;-55
2021/12/21 04:25:58;;;;;;;;;;;;;;;13.05;60.81;102418.69;1041637;28;815;-52
2021/12/21 04:26:48;;;;;;;;;;;;;;;13.04;60.51;102408.91;1041568;28;794;-56
2021/12/21 04:27:39;;;;;;;;;;;;;;;13.04;60.37;102412.47;1043676;28;1863;-54
2021/12/21 04:28:29;;;;;;;;;;;;;;;13.05;60.37;102414.19;1045160;28;942;-52
2021/12/21 04:29:19;;;;;;;;;;;;;;;13.05;60.00;102418.69;1045346;28;802;-56
2021/12/21 04:30:10;;;;;;;;;;;;;;;13.05;60.08;102410.66;1045145;28;814;-55
2021/12/21 04:31:00;;;;;;;;;;;;;;;13.03;60.52;102410.72;1045240;28;722;-55
2021/12/21 04:31:51;;;;;;;;;;;;;;;13.04;60.79;102411.59;1045136;28;657;-53
2021/12/21 04:32:41;;;;;;;;;;;;;;;13.03;59.77;102420.56;1046806;28;910;-54
2021/12/21 04:33:32;;;;;;;;;;;;;;;13.02;59.91;102406.31;1044909;28;715;-55
2021/12/21 04:34:22;;;;;;;;;;;;;;;13.02;59.99;102419.69;1045126;28;785;-55
2021/12/21 04:35:18;;;;;;;;;;;;;;;13.00;60.61;102408.19;1045292;28;784;-55
2021/12/21 04:36:09;;;;;;;;;;;;;;;13.00;59.86;102413.56;1045126;28;823;-55
2021/12/21 04:36:59;;;;;;;;;;;;;;;13.02;60.22;102413.47;1045145;28;924;-55
2021/12/21 04:38:00;;;;;;;;;;;;;;;13.03;59.88;102413.41;1044517;28;1878;-57
2021/12/21 04:38:51;;;;;;;;;;;;;;;13.02;60.68;102405.44;1046222;28;871;-56
2021/12/21 04:40:04;;;;;;;;;;;;;;;13.01;60.61;102411.75;1046264;28;613;-55
2021/12/21 04:40:58;;;;;;;;;;;;;;;12.99;59.73;102409.16;1046150;28;786;-54
2021/12/21 04:41:49;;;;;;;;;;;;;;;12.99;60.72;102406.47;1045005;28;700;-53
2021/12/21 04:42:39;;;;;;;;;;;;;;;13.01;60.30;102411.75;1046297;28;661;-57
2021/12/21 04:43:30;;;;;;;;;;;;;;;12.98;60.81;102407.41;1046305;28;785;-56
2021/12/21 04:44:20;;;;;;;;;;;;;;;12.97;60.78;102402.13;1046309;28;811;-56
2021/12/21 04:45:10;;;;;;;;;;;;;;;12.97;59.91;102399.47;1046137;28;738;-56
2021/12/21 04:46:01;;;;;;;;;;;;;;;12.97;59.71;102404.81;1046242;28;609;-53
2021/12/21 04:46:51;;;;;;;;;;;;;;;12.96;60.77;102403.94;1046259;28;697;-54
2021/12/21 04:47:42;;;;;;;;;;;;;;;12.97;59.76;102408.34;1046012;28;2128;-57
2021/12/21 04:48:32;;;;;;;;;;;;;;;12.97;60.28;102410.16;1045108;28;708;-55
2021/12/21 04:49:22;;;;;;;;;;;;;;;12.97;60.72;102404.81;1045139;28;829;-55
2021/12/21 04:50:13;;;;;;;;;;;;;;;12.95;60.57;102401.34;1045027;28;722;-55
2021/12/21 04:51:03;;;;;;;;;;;;;;;12.95;60.50;102402.22;1045702;28;799;-56
2021/12/21 04:51:54;;;;;;;;;;;;;;;12.95;60.82;102406.69;1045544;28;785;-56
2021/12/21 04:52:44;;;;;;;;;;;;;;;12.97;60.13;102402.13;1045737;28;664;-57
2021/12/21 04:53:35;;;;;;;;;;;;;;;12.96;60.68;102405.75;1045456;28;933;-54
2021/12/21 04:54:25;;;;;;;;;;;;;;;12.95;59.92;102404.88;1045607;28;625;-57
2021/12/21 04:55:15;;;;;;;;;;;;;;;12.95;60.12;102401.34;1045624;28;1362;-54
2021/12/21 04:56:06;;;;;;;;;;;;;;;12.94;59.55;102400.47;1045568;28;720;-56
2021/12/21 04:56:56;;;;;;;;;;;;;;;12.94;59.58;102404.97;1045804;28;734;-56
2021/12/21 04:57:47;;;;;;;;;;;;;;;12.93;60.47;102411.25;1046516;28;1792;-53
2021/12/21 04:58:37;;;;;;;;;;;;;;;12.93;59.78;102395.19;1041711;28;629;-57
2021/12/21 04:59:27;;;;;;;;;;;;;;;12.92;60.38;102402.34;1042794;28;715;-55
2021/12/21 05:00:18;;;;;;;;;;;;;;;12.92;59.73;102404.16;1045637;28;605;-54
2021/12/21 05:01:08;;;;;;;;;;;;;;;12.93;59.92;102403.22;1046211;28;656;-55
2021/12/21 05:01:59;;;;;;;;;;;;;;;12.92;59.66;102402.34;1041660;28;668;-55
2021/12/21 05:02:49;;;;;;;;;;;;;;;12.92;60.49;102402.34;1042312;28;672;-55
2021/12/21 05:03:39;;;;;;;;;;;;;;;12.92;60.21;102397.00;1046111;28;716;-57
2021/12/21 05:04:30;;;;;;;;;;;;;;;12.92;59.66;102399.69;1041825;28;656;-57
2021/12/21 05:05:21;;;;;;;;;;;;;;;12.91;60.12;102397.06;1042225;28;617;-55
2021/12/21 05:06:13;;;;;;;;;;;;;;;12.92;60.01;102401.47;1046012;28;684;-54
2021/12/21 05:07:04;;;;;;;;;;;;;;;12.92;59.75;102406.84;1046118;28;610;-52